Terminal Aerodrome Forecast
Issued by NWS Shreveport, LA

Home | Current Version | Previous Version | Text Only | Print | Product List | Glossary On
Versions: 1 2 3 4 5 6 7 8 9 10 11 12 13 14 15
699
FTUS44 KSHV 261148
TAFSHV
TAF
KSHV 261148Z 2612/2712 VRB04KT P6SM FEW007 SCT090 BKN140
      TEMPO 2613/2615 BKN007
     FM261500 VRB04KT P6SM SCT013 BKN090
      TEMPO 2615/2617 BKN015
     FM261700 VRB05KT P6SM SCT030 SCT090 BKN150
     FM261900 VRB06KT P6SM BKN035
     FM270100 VRB05KT P6SM FEW045 SCT100 BKN250
     FM270600 10003KT P6SM BKN250=

USA.gov is the U.S. government's official web portal to all federal, state and local government web resources and services.